createdAt,value
2023-06-29T00:02:27.217Z,17.40
2023-06-29T00:04:57.030Z,17.39
2023-06-29T00:07:26.389Z,17.36
2023-06-29T00:09:55.956Z,17.36
2023-06-29T00:12:22.592Z,17.36
2023-06-29T00:14:49.333Z,17.29
2023-06-29T00:17:16.227Z,17.23
2023-06-29T00:19:43.303Z,17.21
2023-06-29T00:22:10.917Z,17.18
2023-06-29T00:24:43.688Z,17.18
2023-06-29T00:27:13.405Z,17.17
2023-06-29T00:29:44.554Z,17.05
2023-06-29T00:32:12.149Z,16.98
2023-06-29T00:34:38.845Z,16.97
2023-06-29T00:37:06.469Z,17.05
2023-06-29T00:39:33.950Z,17.03
2023-06-29T00:42:01.154Z,17.06
2023-06-29T00:44:27.848Z,17.06
2023-06-29T00:46:55.309Z,17.14
2023-06-29T00:49:23.462Z,17.21
2023-06-29T00:51:55.450Z,17.18
2023-06-29T00:54:23.307Z,17.16
2023-06-29T00:56:50.605Z,17.20
2023-06-29T00:59:17.830Z,17.27
2023-06-29T01:01:46.888Z,17.34
2023-06-29T01:04:18.835Z,17.38
2023-06-29T01:06:59.363Z,17.34
2023-06-29T01:09:27.513Z,17.45
2023-06-29T01:11:55.350Z,17.46
2023-06-29T01:14:26.553Z,17.33
2023-06-29T01:16:55.695Z,17.34
2023-06-29T01:19:32.710Z,17.29
2023-06-29T01:22:15.804Z,17.30
2023-06-29T01:24:43.280Z,17.34
2023-06-29T01:27:14.090Z,17.42
2023-06-29T01:29:41.818Z,17.49
2023-06-29T01:32:11.425Z,17.55
2023-06-29T01:34:39.618Z,17.64
2023-06-29T01:37:26.903Z,17.66
2023-06-29T01:40:01.306Z,17.67
2023-06-29T01:42:32.944Z,17.71
2023-06-29T01:45:06.955Z,17.70
2023-06-29T01:47:35.122Z,17.73
2023-06-29T01:50:03.730Z,17.63
2023-06-29T01:52:31.299Z,17.62
2023-06-29T01:54:58.044Z,17.57
2023-06-29T01:57:25.049Z,17.59
2023-06-29T01:59:52.030Z,17.65
2023-06-29T02:02:18.778Z,17.70
2023-06-29T02:04:45.518Z,17.73
2023-06-29T02:07:12.292Z,17.76
2023-06-29T02:09:38.916Z,17.69
2023-06-29T02:12:06.494Z,17.63
2023-06-29T02:14:33.236Z,17.63
2023-06-29T02:16:59.934Z,17.66
2023-06-29T02:19:26.656Z,17.70
2023-06-29T02:21:53.556Z,17.66
2023-06-29T02:24:20.476Z,17.68
2023-06-29T02:26:47.110Z,17.62
2023-06-29T02:29:13.908Z,17.58
2023-06-29T02:31:40.581Z,17.60
2023-06-29T02:34:07.420Z,17.67
2023-06-29T02:36:34.105Z,17.62
2023-06-29T02:39:00.842Z,17.64
2023-06-29T02:41:27.570Z,17.65
2023-06-29T02:43:54.588Z,17.58
2023-06-29T02:46:21.395Z,17.58
2023-06-29T02:48:48.195Z,17.60
2023-06-29T02:51:15.190Z,17.65
2023-06-29T02:53:42.013Z,17.71
2023-06-29T02:56:08.644Z,17.71
2023-06-29T02:58:35.348Z,17.64
2023-06-29T03:01:02.074Z,17.50
2023-06-29T03:03:28.887Z,17.44
2023-06-29T03:05:55.679Z,17.57
2023-06-29T03:08:22.312Z,17.65
2023-06-29T03:10:49.017Z,17.71
2023-06-29T03:13:15.643Z,17.78
2023-06-29T03:15:42.645Z,17.84
2023-06-29T03:18:09.688Z,17.84
2023-06-29T03:20:37.022Z,17.77
2023-06-29T03:23:03.668Z,17.71
2023-06-29T03:25:30.309Z,17.64
2023-06-29T03:27:57.500Z,17.58
2023-06-29T03:30:24.180Z,17.54
2023-06-29T03:32:51.027Z,17.54
2023-06-29T03:35:17.689Z,17.51
2023-06-29T03:37:44.402Z,17.48
2023-06-29T03:40:11.884Z,17.53
2023-06-29T03:42:38.671Z,17.40
2023-06-29T03:45:06.128Z,17.36
2023-06-29T03:47:32.883Z,17.38
2023-06-29T03:49:59.629Z,17.39
2023-06-29T03:52:26.269Z,17.36
2023-06-29T03:54:53.304Z,17.38
2023-06-29T03:57:20.217Z,17.42
2023-06-29T03:59:47.005Z,17.48
2023-06-29T04:02:13.963Z,17.64
2023-06-29T04:04:40.713Z,17.68
2023-06-29T04:07:07.454Z,17.66
2023-06-29T04:09:34.147Z,17.72
2023-06-29T04:12:00.865Z,17.79
2023-06-29T04:14:27.489Z,17.87
2023-06-29T04:16:54.183Z,17.98
2023-06-29T04:19:20.800Z,18.04
2023-06-29T04:21:47.434Z,18.09
2023-06-29T04:24:14.240Z,18.11
2023-06-29T04:26:42.508Z,18.11
2023-06-29T04:29:09.353Z,18.15
2023-06-29T04:31:36.203Z,18.13
2023-06-29T04:34:05.748Z,18.05
2023-06-29T04:36:32.795Z,18.01
2023-06-29T04:39:00.202Z,18.02
2023-06-29T04:41:33.295Z,18.05
2023-06-29T04:44:01.597Z,18.00
2023-06-29T04:46:32.111Z,17.97
2023-06-29T04:49:07.598Z,18.00
2023-06-29T04:51:36.693Z,17.96
2023-06-29T04:54:06.990Z,17.98
2023-06-29T04:56:33.850Z,18.01
2023-06-29T04:59:00.606Z,17.98
2023-06-29T05:01:27.563Z,18.00
2023-06-29T05:03:54.572Z,17.99
2023-06-29T05:06:21.382Z,18.08
2023-06-29T05:08:48.171Z,18.10
2023-06-29T05:11:14.856Z,18.13
2023-06-29T05:13:41.611Z,18.19
2023-06-29T05:16:08.337Z,18.17
2023-06-29T05:18:38.277Z,18.15
2023-06-29T05:21:05.159Z,18.19
2023-06-29T05:23:32.110Z,18.24
2023-06-29T05:25:58.719Z,18.32
2023-06-29T05:28:25.460Z,18.31
2023-06-29T05:30:52.278Z,18.34
2023-06-29T05:33:19.055Z,18.39
2023-06-29T05:35:46.463Z,18.37
2023-06-29T05:38:13.669Z,18.40
2023-06-29T05:40:40.280Z,18.50
2023-06-29T05:43:07.175Z,18.57
2023-06-29T05:45:33.961Z,18.51
2023-06-29T05:48:00.856Z,18.57
2023-06-29T05:50:27.513Z,18.66
2023-06-29T05:52:54.130Z,18.70
2023-06-29T05:55:21.049Z,18.68
2023-06-29T05:57:48.927Z,18.74
2023-06-29T06:00:16.561Z,18.80
2023-06-29T06:02:43.152Z,18.89
2023-06-29T06:05:11.611Z,18.95
2023-06-29T06:07:39.539Z,19.01
2023-06-29T06:10:07.161Z,19.09
2023-06-29T06:12:33.900Z,19.15
2023-06-29T06:15:00.565Z,19.28
2023-06-29T06:17:27.362Z,19.36
2023-06-29T06:19:55.953Z,19.42
2023-06-29T06:22:25.119Z,19.50
2023-06-29T06:24:52.218Z,19.50
2023-06-29T06:27:20.511Z,19.48
2023-06-29T06:29:53.050Z,19.63
2023-06-29T06:32:22.492Z,19.73
2023-06-29T06:34:52.587Z,19.84
2023-06-29T06:37:20.460Z,19.94
2023-06-29T06:39:47.809Z,20.05
2023-06-29T06:42:15.879Z,20.10
2023-06-29T06:44:58.661Z,20.07
2023-06-29T06:47:26.516Z,20.20
2023-06-29T06:49:53.326Z,20.23
2023-06-29T06:52:20.019Z,20.34
2023-06-29T06:54:46.743Z,20.42
2023-06-29T06:57:13.519Z,20.47
2023-06-29T06:59:40.464Z,20.56
2023-06-29T07:02:07.692Z,20.63
2023-06-29T07:04:34.714Z,20.75
2023-06-29T07:07:01.726Z,20.87
2023-06-29T07:09:28.466Z,21.04
2023-06-29T07:11:55.781Z,21.20
2023-06-29T07:14:22.649Z,21.29
2023-06-29T07:16:49.545Z,21.35
2023-06-29T07:24:06.420Z,21.39
2023-06-29T07:24:33.855Z,21.06
2023-06-29T07:27:00.913Z,21.24
2023-06-29T07:29:28.313Z,21.36
2023-06-29T07:31:55.082Z,21.52
2023-06-29T07:34:24.513Z,21.68
2023-06-29T07:36:52.396Z,21.76
2023-06-29T07:39:19.289Z,21.61
2023-06-29T07:41:46.002Z,21.65
2023-06-29T07:44:12.700Z,21.82
2023-06-29T07:46:39.628Z,21.96
2023-06-29T07:49:06.313Z,22.09
2023-06-29T07:51:36.124Z,22.23
2023-06-29T07:54:05.468Z,22.21
2023-06-29T07:59:05.216Z,22.32
2023-06-29T08:01:36.097Z,22.40
2023-06-29T08:04:04.777Z,22.51
2023-06-29T08:09:03.507Z,22.65
2023-06-29T08:11:30.657Z,22.70
2023-06-29T08:13:57.507Z,22.77
2023-06-29T08:16:24.221Z,22.82
2023-06-29T08:18:51.160Z,22.86
2023-06-29T08:21:19.351Z,22.90
2023-06-29T08:23:54.028Z,22.83
2023-06-29T08:26:22.117Z,22.91
2023-06-29T08:28:49.297Z,22.90
2023-06-29T08:31:26.109Z,22.86
2023-06-29T08:33:58.959Z,22.93
2023-06-29T08:36:26.616Z,22.97
2023-06-29T08:38:53.410Z,23.02
2023-06-29T08:41:20.332Z,23.13
2023-06-29T08:43:47.136Z,23.20
2023-06-29T08:46:14.180Z,23.24
2023-06-29T08:48:45.839Z,23.27
2023-06-29T08:51:17.442Z,23.28
2023-06-29T08:53:44.962Z,23.33
2023-06-29T08:56:13.660Z,23.32
2023-06-29T08:58:40.830Z,23.35
2023-06-29T09:01:08.511Z,23.38
2023-06-29T09:03:37.263Z,23.31
2023-06-29T09:06:04.869Z,23.31
2023-06-29T09:08:31.804Z,23.32
2023-06-29T09:10:59.211Z,23.33
2023-06-29T09:13:28.852Z,23.30
2023-06-29T09:15:55.955Z,23.37
2023-06-29T09:18:41.276Z,23.34
2023-06-29T09:21:10.093Z,23.37
2023-06-29T09:23:43.977Z,23.42
2023-06-29T09:26:10.785Z,23.54
2023-06-29T09:28:47.580Z,23.53
2023-06-29T09:31:15.123Z,23.66
2023-06-29T09:33:41.878Z,23.72
2023-06-29T09:36:09.740Z,23.72
2023-06-29T09:38:36.797Z,23.66
2023-06-29T09:41:07.780Z,23.64
2023-06-29T09:43:34.542Z,23.69
2023-06-29T09:46:08.380Z,23.70
2023-06-29T09:51:24.536Z,23.81
2023-06-29T09:53:51.673Z,23.92
2023-06-29T09:56:19.005Z,24.00
2023-06-29T09:58:47.634Z,24.09
2023-06-29T10:01:19.350Z,24.19
2023-06-29T10:03:46.296Z,24.32
2023-06-29T10:06:23.198Z,24.41
2023-06-29T10:08:57.166Z,24.54
2023-06-29T10:11:31.185Z,24.53
2023-06-29T10:14:02.955Z,24.66
2023-06-29T10:16:36.024Z,24.76
2023-06-29T10:19:24.190Z,24.84
2023-06-29T10:22:16.848Z,24.91
2023-06-29T10:24:47.104Z,25.15
2023-06-29T10:27:15.921Z,25.09
2023-06-29T10:29:46.845Z,25.11
2023-06-29T10:32:37.982Z,25.03
2023-06-29T10:35:13.304Z,25.17
2023-06-29T10:37:44.913Z,25.17
2023-06-29T10:40:11.908Z,25.30
2023-06-29T10:42:54.358Z,25.22
2023-06-29T10:45:21.510Z,25.31
2023-06-29T10:47:57.570Z,25.23
2023-06-29T10:50:36.865Z,25.19
2023-06-29T10:53:06.810Z,25.12
2023-06-29T10:55:44.167Z,24.97
2023-06-29T10:58:36.445Z,24.89
2023-06-29T11:01:03.312Z,24.72
2023-06-29T11:03:30.493Z,24.46
2023-06-29T11:05:59.789Z,24.36
2023-06-29T11:08:36.477Z,24.32
2023-06-29T11:11:15.962Z,24.08
2023-06-29T11:13:43.089Z,24.11
2023-06-29T11:16:10.232Z,24.05
2023-06-29T11:18:36.900Z,24.01
2023-06-29T11:21:03.682Z,24.01
2023-06-29T11:23:30.386Z,24.00
2023-06-29T11:26:02.235Z,24.01
2023-06-29T11:28:33.728Z,23.66
2023-06-29T11:31:01.759Z,23.61
2023-06-29T11:36:15.408Z,24.05
2023-06-29T11:38:42.334Z,24.26
2023-06-29T11:41:10.282Z,24.36
2023-06-29T11:43:37.345Z,24.55
2023-06-29T11:46:04.328Z,24.68
2023-06-29T11:48:31.430Z,24.77
2023-06-29T11:51:02.082Z,24.87
2023-06-29T11:53:30.288Z,25.04
2023-06-29T11:55:58.008Z,25.03
2023-06-29T11:58:34.289Z,25.09
2023-06-29T12:01:01.016Z,25.26
2023-06-29T12:03:27.946Z,25.25
2023-06-29T12:05:59.362Z,25.35
2023-06-29T12:08:26.440Z,25.41
2023-06-29T12:10:53.191Z,25.46
2023-06-29T12:13:22.194Z,25.44
2023-06-29T12:18:18.568Z,25.58
2023-06-29T12:20:48.752Z,25.67
2023-06-29T12:23:16.100Z,25.80
2023-06-29T12:25:47.472Z,25.88
2023-06-29T12:28:15.214Z,26.10
2023-06-29T12:30:42.350Z,26.23
2023-06-29T12:33:13.528Z,26.35
2023-06-29T12:35:40.769Z,26.53
2023-06-29T12:38:07.753Z,26.43
2023-06-29T12:40:35.026Z,26.79
2023-06-29T12:43:02.883Z,27.08
2023-06-29T12:45:29.890Z,27.53
2023-06-29T12:47:57.077Z,27.98
2023-06-29T12:50:23.867Z,28.13
2023-06-29T12:52:51.011Z,28.01
2023-06-29T12:55:18.060Z,27.87
2023-06-29T12:57:45.487Z,27.71
2023-06-29T13:00:13.719Z,27.53
2023-06-29T13:02:42.029Z,27.41
2023-06-29T13:05:09.564Z,27.18
2023-06-29T13:07:37.099Z,26.93
2023-06-29T13:10:05.283Z,26.77
2023-06-29T13:12:32.485Z,26.57
2023-06-29T13:15:00.112Z,26.39
2023-06-29T13:17:27.419Z,26.17
2023-06-29T13:19:54.220Z,25.95
2023-06-29T13:22:21.052Z,25.72
2023-06-29T13:24:48.329Z,25.52
2023-06-29T13:27:15.622Z,25.28
2023-06-29T13:29:43.595Z,25.17
2023-06-29T13:32:10.480Z,25.06
2023-06-29T13:34:37.212Z,24.97
2023-06-29T13:37:04.632Z,24.82
2023-06-29T13:39:31.501Z,24.74
2023-06-29T13:41:58.358Z,24.64
2023-06-29T13:44:25.167Z,24.55
2023-06-29T13:46:51.852Z,24.46
2023-06-29T13:49:18.552Z,24.35
2023-06-29T13:51:46.334Z,24.28
2023-06-29T13:54:14.547Z,24.23
2023-06-29T13:56:41.217Z,24.14
2023-06-29T13:59:10.566Z,24.08
2023-06-29T14:01:41.496Z,24.11
2023-06-29T14:04:11.946Z,24.07
2023-06-29T14:06:43.545Z,24.03
2023-06-29T14:09:12.467Z,23.96
2023-06-29T14:11:40.051Z,23.94
2023-06-29T14:14:07.468Z,23.84
2023-06-29T14:16:34.407Z,23.77
2023-06-29T14:19:01.428Z,23.78
2023-06-29T14:21:28.838Z,23.73
2023-06-29T14:23:56.464Z,23.70
2023-06-29T14:26:23.812Z,23.64
2023-06-29T14:28:50.497Z,23.57
2023-06-29T14:31:18.406Z,23.52
2023-06-29T14:33:46.623Z,23.48
2023-06-29T14:36:13.878Z,23.44
2023-06-29T14:38:40.617Z,23.34
2023-06-29T14:41:07.359Z,23.30
2023-06-29T14:43:34.221Z,23.24
2023-06-29T14:46:01.122Z,23.21
2023-06-29T14:48:28.132Z,23.11
2023-06-29T14:50:55.124Z,23.01
2023-06-29T14:53:23.766Z,22.98
2023-06-29T14:56:04.054Z,22.96
2023-06-29T14:58:31.230Z,22.90
2023-06-29T15:00:58.038Z,22.90
2023-06-29T15:03:24.780Z,22.82
2023-06-29T15:05:51.491Z,22.80
2023-06-29T15:08:18.118Z,22.70
2023-06-29T15:10:44.899Z,22.68
2023-06-29T15:13:11.547Z,22.62
2023-06-29T15:15:38.167Z,22.61
2023-06-29T15:18:05.950Z,22.63
2023-06-29T15:20:32.936Z,22.60
2023-06-29T15:22:59.627Z,22.60
2023-06-29T15:25:26.444Z,22.60
2023-06-29T15:27:53.546Z,22.62
2023-06-29T15:30:20.545Z,22.67
2023-06-29T15:32:47.291Z,22.74
2023-06-29T15:35:14.229Z,22.80
2023-06-29T15:37:41.213Z,22.90
2023-06-29T15:40:08.696Z,23.04
2023-06-29T15:42:35.738Z,23.21
2023-06-29T15:45:04.772Z,23.34
2023-06-29T15:47:33.126Z,23.43
2023-06-29T15:50:01.234Z,23.46
2023-06-29T15:52:28.869Z,23.45
2023-06-29T15:54:55.503Z,23.40
2023-06-29T15:57:22.278Z,23.47
2023-06-29T15:59:48.976Z,23.55
2023-06-29T16:02:15.796Z,23.60
2023-06-29T16:04:42.573Z,23.65
2023-06-29T16:07:10.004Z,23.61
2023-06-29T16:09:38.418Z,23.68
2023-06-29T16:12:06.739Z,23.73
2023-06-29T16:14:34.097Z,23.81
2023-06-29T16:17:04.018Z,23.85
2023-06-29T16:19:30.818Z,23.85
2023-06-29T16:21:57.465Z,23.84
2023-06-29T16:24:24.120Z,23.82
2023-06-29T16:26:51.098Z,23.79
2023-06-29T16:29:19.038Z,23.77
2023-06-29T16:31:49.493Z,23.73
2023-06-29T16:34:16.535Z,23.69
2023-06-29T16:36:43.382Z,23.67
2023-06-29T16:39:10.548Z,23.61
2023-06-29T16:41:38.181Z,23.55
2023-06-29T16:44:05.054Z,23.49
2023-06-29T16:46:31.818Z,23.43
2023-06-29T16:49:00.750Z,23.31
2023-06-29T16:51:29.408Z,23.25
2023-06-29T16:53:58.017Z,23.12
2023-06-29T16:56:27.599Z,23.00
2023-06-29T16:58:55.410Z,23.01
2023-06-29T17:01:22.399Z,23.01
2023-06-29T17:03:49.423Z,23.03
2023-06-29T17:06:16.358Z,23.02
2023-06-29T17:08:43.058Z,22.90
2023-06-29T17:11:09.850Z,22.96
2023-06-29T17:13:36.636Z,22.99
2023-06-29T17:16:04.594Z,23.04
2023-06-29T17:18:31.645Z,23.09
2023-06-29T17:20:58.438Z,23.11
2023-06-29T17:23:25.159Z,23.15
2023-06-29T17:25:52.612Z,23.22
2023-06-29T17:28:21.352Z,22.95
2023-06-29T17:30:48.293Z,22.95
2023-06-29T17:33:15.632Z,23.01
2023-06-29T17:35:42.940Z,23.12
2023-06-29T17:38:10.923Z,23.03
2023-06-29T17:43:36.648Z,22.51
2023-06-29T17:46:39.776Z,22.64
2023-06-29T17:49:06.818Z,22.84
2023-06-29T17:51:33.845Z,23.00
2023-06-29T17:54:00.824Z,23.06
2023-06-29T17:56:31.313Z,22.84
2023-06-29T17:58:58.289Z,22.80
2023-06-29T18:01:25.130Z,22.86
2023-06-29T18:03:52.227Z,22.86
2023-06-29T18:06:22.134Z,22.95
2023-06-29T18:08:49.483Z,23.02
2023-06-29T18:11:16.260Z,23.10
2023-06-29T18:13:43.196Z,23.00
2023-06-29T18:19:35.898Z,22.88
2023-06-29T18:22:26.248Z,22.89
2023-06-29T18:27:55.564Z,23.00
2023-06-29T18:30:22.446Z,23.11
2023-06-29T18:32:49.572Z,23.02
2023-06-29T18:35:18.143Z,23.00
2023-06-29T18:37:46.698Z,23.02
2023-06-29T18:40:17.200Z,22.99
2023-06-29T18:42:44.319Z,23.02
2023-06-29T18:45:12.487Z,23.01
2023-06-29T18:47:39.272Z,22.98
2023-06-29T18:50:07.600Z,22.97
2023-06-29T18:52:34.892Z,22.94
2023-06-29T18:55:02.278Z,22.90
2023-06-29T18:57:29.394Z,22.82
2023-06-29T18:59:57.375Z,22.78
2023-06-29T19:02:24.060Z,22.72
2023-06-29T19:04:50.964Z,22.67
2023-06-29T19:07:18.255Z,22.58
2023-06-29T19:09:45.694Z,22.44
2023-06-29T19:12:14.264Z,22.38
2023-06-29T19:14:41.396Z,22.35
2023-06-29T19:17:08.135Z,22.29
2023-06-29T19:19:36.199Z,22.24
2023-06-29T19:22:03.290Z,22.19
2023-06-29T19:24:30.306Z,22.09
2023-06-29T19:27:01.308Z,21.93
2023-06-29T19:29:28.519Z,21.86
2023-06-29T19:31:55.299Z,21.82
2023-06-29T19:34:22.046Z,21.81
2023-06-29T19:36:49.012Z,21.80
2023-06-29T19:39:15.814Z,21.74
2023-06-29T19:41:42.718Z,21.69
2023-06-29T19:44:09.458Z,21.60
2023-06-29T19:46:36.319Z,21.51
2023-06-29T19:49:04.153Z,21.37
2023-06-29T19:51:35.297Z,21.34
2023-06-29T19:54:02.193Z,21.31
2023-06-29T19:56:29.344Z,21.28
2023-06-29T19:58:56.146Z,21.23
2023-06-29T20:01:22.965Z,21.15
2023-06-29T20:03:49.864Z,21.10
2023-06-29T20:06:16.579Z,21.08
2023-06-29T20:08:43.359Z,21.04
2023-06-29T20:11:10.182Z,21.00
2023-06-29T20:13:36.873Z,20.92
2023-06-29T20:16:03.831Z,20.83
2023-06-29T20:18:33.229Z,20.68
2023-06-29T20:20:59.995Z,20.59
2023-06-29T20:23:26.668Z,20.47
2023-06-29T20:25:53.369Z,20.45
2023-06-29T20:28:20.789Z,20.45
2023-06-29T20:30:47.518Z,20.48
2023-06-29T20:33:14.319Z,20.40
2023-06-29T20:35:41.368Z,20.37
2023-06-29T20:38:09.417Z,20.34
2023-06-29T20:40:36.349Z,20.26
2023-06-29T20:43:02.979Z,20.28
2023-06-29T20:45:29.952Z,20.28
2023-06-29T20:47:57.977Z,20.30
2023-06-29T20:50:26.182Z,20.29
2023-06-29T20:52:53.005Z,20.29
2023-06-29T20:55:19.703Z,20.28
2023-06-29T20:57:46.488Z,20.25
2023-06-29T21:00:14.431Z,20.26
2023-06-29T21:02:42.728Z,20.17
2023-06-29T21:05:10.098Z,20.15
2023-06-29T21:07:37.168Z,20.19
2023-06-29T21:10:04.517Z,20.24
2023-06-29T21:12:31.867Z,20.24
2023-06-29T21:15:00.222Z,20.23
2023-06-29T21:17:27.608Z,20.23
2023-06-29T21:19:54.628Z,20.15
2023-06-29T21:22:21.963Z,20.12
2023-06-29T21:24:50.075Z,20.12
2023-06-29T21:27:20.403Z,20.13
2023-06-29T21:29:49.013Z,20.13
2023-06-29T21:32:17.027Z,20.14
2023-06-29T21:34:44.334Z,20.09
2023-06-29T21:37:11.924Z,20.03
2023-06-29T21:39:38.629Z,19.96
2023-06-29T21:42:06.514Z,19.90
2023-06-29T21:44:33.270Z,19.86
2023-06-29T21:47:03.943Z,19.84
2023-06-29T21:49:32.972Z,19.86
2023-06-29T21:51:59.940Z,19.89
2023-06-29T21:54:27.395Z,19.93
2023-06-29T21:56:54.244Z,19.94
2023-06-29T21:59:20.919Z,19.95
2023-06-29T22:01:48.026Z,19.92
2023-06-29T23:30:21.666Z,19.41
2023-06-29T23:32:50.894Z,19.43
2023-06-29T23:35:18.257Z,19.43
2023-06-29T23:37:45.252Z,19.49
2023-06-29T23:40:12.525Z,19.50
2023-06-29T23:42:39.317Z,19.49
2023-06-29T23:45:10.421Z,19.54
2023-06-29T23:47:39.398Z,19.58
2023-06-29T23:50:12.544Z,19.55
2023-06-29T23:52:40.297Z,19.46
2023-06-29T23:55:12.855Z,19.34
2023-06-29T23:57:40.726Z,19.33
